Mesa, Arizona
Current Conditions -  °F | °C
As of 7:47 PM on Thursday 27 Nov 2014 (Local Time) from KCHD Reporting Station
Few Clouds Few Clouds  
Wind Chill: 61°   Ceiling: Unl
Heat Index: 61°   Visibility: 15mi
Dew Point: 36°   Wind: 7mph
Humidity: 39%   Direction: 50°NE
Pressure: 30.07"   Gusts: NA
Location:  33.42°N, 111.83°W
Report Text: KCHD 280247Z 05006KT 15SM FEW250 16/02 A3007
Loading
Personal Weather Stations






























Interactive Weather Map New forecast layout! Learn more

10-Day Weather Forecast

Advertisements
Track Severe Weather on mobile